createdAt,value
2018-11-07T00:00:50.044Z,10.00
2018-11-07T00:03:17.475Z,12.20
2018-11-07T00:05:45.203Z,11.60
2018-11-07T00:08:13.553Z,12.00
2018-11-07T00:10:40.904Z,10.80
2018-11-07T00:13:08.327Z,14.00
2018-11-07T00:15:39.749Z,10.00
2018-11-07T00:18:07.204Z,12.20
2018-11-07T00:20:36.587Z,7.00
2018-11-07T00:23:04.448Z,10.40
2018-11-07T00:25:31.906Z,7.40
2018-11-07T00:27:59.315Z,9.80
2018-11-07T00:30:27.578Z,9.00
2018-11-07T00:32:55.400Z,9.20
2018-11-07T00:35:22.824Z,12.00
2018-11-07T00:37:51.352Z,10.40
2018-11-07T00:40:20.928Z,9.60
2018-11-07T00:42:49.124Z,9.80
2018-11-07T00:45:16.560Z,13.40
2018-11-07T00:47:44.476Z,7.00
2018-11-07T00:50:13.281Z,10.80
2018-11-07T00:52:40.852Z,6.20
2018-11-07T00:55:08.256Z,7.40
2018-11-07T00:57:37.060Z,9.00
2018-11-07T01:00:04.472Z,8.60
2018-11-07T01:02:31.886Z,9.00
2018-11-07T01:04:59.521Z,8.20
2018-11-07T01:07:27.384Z,10.80
2018-11-07T01:09:54.827Z,3.60
2018-11-07T01:12:22.283Z,8.40
2018-11-07T01:14:50.348Z,7.40
2018-11-07T01:17:22.991Z,8.40
2018-11-07T01:19:50.399Z,11.00
2018-11-07T01:22:17.832Z,10.80
2018-11-07T01:24:45.271Z,7.80
2018-11-07T01:27:13.551Z,10.00
2018-11-07T01:29:40.955Z,7.40
2018-11-07T01:32:08.376Z,1.40
2018-11-07T01:34:35.796Z,7.80
2018-11-07T01:37:03.623Z,5.20
2018-11-07T01:39:31.062Z,7.40
2018-11-07T01:41:58.518Z,4.40
2018-11-07T01:44:25.971Z,9.00
2018-11-07T01:46:53.847Z,10.20
2018-11-07T01:49:21.264Z,7.80
2018-11-07T01:51:48.690Z,8.60
2018-11-07T01:54:16.091Z,7.40
2018-11-07T01:56:43.963Z,4.40
2018-11-07T01:59:11.407Z,7.00
2018-11-07T02:01:38.849Z,5.20
2018-11-07T02:04:06.263Z,6.60
2018-11-07T02:06:34.127Z,6.60
2018-11-07T02:09:01.576Z,7.00
2018-11-07T02:11:29.032Z,9.20
2018-11-07T02:13:56.436Z,9.00
2018-11-07T02:16:24.182Z,5.20
2018-11-07T02:18:51.624Z,7.00
2018-11-07T02:21:22.974Z,8.80
2018-11-07T02:23:50.392Z,9.00
2018-11-07T02:26:18.348Z,9.20
2018-11-07T02:28:47.195Z,9.00
2018-11-07T02:31:15.232Z,7.40
2018-11-07T02:33:42.679Z,7.20
2018-11-07T02:36:11.179Z,5.60
2018-11-07T02:45:33.804Z,9.00
2018-11-07T02:48:03.943Z,9.00
2018-11-07T02:50:33.109Z,9.20
2018-11-07T02:53:01.484Z,6.20
2018-11-07T02:55:28.916Z,6.60
2018-11-07T02:57:56.790Z,7.00
2018-11-07T03:00:24.234Z,7.00
2018-11-07T03:02:52.663Z,8.60
2018-11-07T03:05:20.084Z,3.80
2018-11-07T03:07:48.817Z,7.80
2018-11-07T03:10:20.360Z,10.80
2018-11-07T03:12:47.814Z,9.00
2018-11-07T03:15:15.288Z,9.00
2018-11-07T03:17:43.020Z,0.20
2018-11-07T03:20:11.180Z,3.00
2018-11-07T03:22:39.349Z,8.20
2018-11-07T03:25:06.985Z,4.40
2018-11-07T03:27:35.144Z,7.40
2018-11-07T03:30:02.566Z,6.60
2018-11-07T03:32:30.004Z,7.00
2018-11-07T03:34:57.456Z,5.60
2018-11-07T03:37:25.353Z,8.20
2018-11-07T03:39:52.843Z,8.20
2018-11-07T03:42:20.293Z,5.20
2018-11-07T03:44:48.116Z,6.00
2018-11-07T03:47:15.553Z,8.20
2018-11-07T03:49:42.968Z,8.80
2018-11-07T03:52:10.408Z,7.40
2018-11-07T03:54:38.157Z,9.00
2018-11-07T03:57:07.276Z,9.60
2018-11-07T03:59:35.500Z,9.20
2018-11-07T04:02:02.946Z,6.00
2018-11-07T04:04:30.866Z,7.40
2018-11-07T04:06:58.542Z,9.00
2018-11-07T04:09:25.992Z,6.40
2018-11-07T04:11:53.424Z,6.80
2018-11-07T04:14:20.846Z,4.00
2018-11-07T04:16:48.289Z,8.20
2018-11-07T04:19:15.895Z,4.00
2018-11-07T04:21:43.678Z,6.20
2018-11-07T04:24:11.125Z,6.40
2018-11-07T04:26:39.092Z,8.60
2018-11-07T04:29:06.605Z,6.20
2018-11-07T04:31:35.352Z,6.00
2018-11-07T04:34:02.841Z,4.80
2018-11-07T04:36:30.294Z,5.60
2018-11-07T04:38:58.137Z,5.80
2018-11-07T04:41:25.816Z,7.80
2018-11-07T04:43:53.232Z,6.40
2018-11-07T04:46:21.115Z,6.20
2018-11-07T04:48:48.558Z,4.00
2018-11-07T04:51:16.213Z,4.20
2018-11-07T04:53:43.646Z,4.80
2018-11-07T04:56:11.787Z,4.00
2018-11-07T04:58:39.212Z,1.40
2018-11-07T05:01:07.891Z,3.40
2018-11-07T05:03:35.501Z,4.00
2018-11-07T05:06:03.413Z,5.20
2018-11-07T05:08:30.840Z,3.20
2018-11-07T05:10:58.328Z,6.00
2018-11-07T05:13:25.776Z,4.00
2018-11-07T05:15:53.196Z,4.80
2018-11-07T05:18:21.086Z,4.00
2018-11-07T05:20:48.553Z,3.00
2018-11-07T05:23:16.437Z,5.20
2018-11-07T05:25:45.497Z,7.80
2018-11-07T05:28:12.929Z,6.00
2018-11-07T05:30:40.643Z,4.40
2018-11-07T05:33:08.081Z,1.80
2018-11-07T05:35:36.321Z,3.00
2018-11-07T05:38:04.037Z,1.00
2018-11-07T05:40:31.454Z,4.00
2018-11-07T05:42:59.928Z,3.20
2018-11-07T05:45:27.636Z,6.00
2018-11-07T05:47:58.628Z,3.60
2018-11-07T05:50:26.037Z,1.80
2018-11-07T05:52:53.916Z,4.00
2018-11-07T05:55:21.588Z,3.40
2018-11-07T05:57:50.192Z,2.60
2018-11-07T06:00:17.904Z,2.20
2018-11-07T06:02:45.320Z,4.80
2018-11-07T06:05:13.076Z,3.60
2018-11-07T06:07:41.922Z,3.00
2018-11-07T06:10:10.043Z,1.80
2018-11-07T06:12:37.852Z,4.00
2018-11-07T06:15:05.532Z,3.60
2018-11-07T06:17:32.975Z,4.00
2018-11-07T06:20:01.561Z,1.40
2018-11-07T06:22:29.036Z,3.00
2018-11-07T06:24:56.524Z,4.00
2018-11-07T06:27:24.345Z,1.00
2018-11-07T06:29:51.773Z,3.00
2018-11-07T06:32:19.253Z,3.60
2018-11-07T06:34:47.151Z,3.40
2018-11-07T06:37:14.616Z,3.00
2018-11-07T06:39:43.244Z,3.40
2018-11-07T06:42:11.816Z,2.60
2018-11-07T06:44:40.312Z,3.00
2018-11-07T06:47:08.780Z,2.60
2018-11-07T06:49:36.736Z,1.00
2018-11-07T06:52:04.520Z,4.00
2018-11-07T06:54:31.944Z,3.60
2018-11-07T06:56:59.697Z,3.00
2018-11-07T06:59:28.504Z,0.00
2018-11-07T07:01:57.598Z,4.00
2018-11-07T07:04:25.363Z,4.80
2018-11-07T07:06:52.773Z,4.80
2018-11-07T07:09:20.234Z,2.20
2018-11-07T07:11:48.022Z,3.20
2018-11-07T07:14:15.460Z,1.00
2018-11-07T07:16:43.660Z,3.60
2018-11-07T07:19:11.451Z,3.00
2018-11-07T07:21:39.631Z,3.00
2018-11-07T07:24:07.118Z,3.20
2018-11-07T07:26:34.925Z,2.60
2018-11-07T07:29:02.410Z,3.20
2018-11-07T07:31:31.966Z,3.00
2018-11-07T07:33:59.936Z,1.40
2018-11-07T07:36:27.385Z,3.40
2018-11-07T07:38:54.844Z,3.40
2018-11-07T07:41:23.514Z,5.80
2018-11-07T07:43:50.987Z,3.00
2018-11-07T07:46:18.533Z,2.60
2018-11-07T07:48:46.363Z,3.40
2018-11-07T07:51:13.823Z,3.20
2018-11-07T07:53:41.504Z,3.40
2018-11-07T07:56:09.303Z,3.00
2018-11-07T07:58:37.533Z,3.20
2018-11-07T08:01:04.969Z,2.20
2018-11-07T08:03:36.539Z,1.00
2018-11-07T08:06:03.964Z,3.00
2018-11-07T08:08:31.406Z,3.40
2018-11-07T08:10:59.167Z,4.00
2018-11-07T08:13:27.186Z,3.00
2018-11-07T08:15:54.652Z,1.00
2018-11-07T08:18:22.549Z,1.00
2018-11-07T08:20:50.435Z,2.60
2018-11-07T08:23:17.860Z,3.80
2018-11-07T08:25:46.381Z,1.40
2018-11-07T08:28:14.636Z,4.40
2018-11-07T08:30:44.700Z,1.40
2018-11-07T08:33:12.430Z,3.00
2018-11-07T08:35:43.432Z,1.00
2018-11-07T08:38:10.867Z,3.00
2018-11-07T08:40:38.665Z,1.40
2018-11-07T08:43:09.101Z,1.00
2018-11-07T08:45:37.326Z,1.00
2018-11-07T08:48:08.410Z,1.00
2018-11-07T08:50:36.513Z,3.00
2018-11-07T08:53:03.938Z,1.00
2018-11-07T08:55:31.802Z,2.20
2018-11-07T08:57:59.554Z,0.60
2018-11-07T09:00:27.057Z,1.00
2018-11-07T09:02:55.064Z,3.00
2018-11-07T09:05:23.192Z,0.20
2018-11-07T09:07:51.416Z,1.00
2018-11-07T09:10:20.611Z,3.00
2018-11-07T09:12:48.816Z,1.00
2018-11-07T09:15:17.444Z,1.00
2018-11-07T09:17:45.291Z,1.00
2018-11-07T09:20:14.002Z,2.20
2018-11-07T09:22:41.524Z,1.40
2018-11-07T09:25:09.300Z,0.60
2018-11-07T09:27:36.808Z,1.40
2018-11-07T09:30:05.267Z,1.00
2018-11-07T09:32:37.724Z,1.00
2018-11-07T09:35:05.557Z,0.00
2018-11-07T09:37:33.000Z,0.40
2018-11-07T09:40:00.775Z,1.40
2018-11-07T09:42:28.832Z,0.80
2018-11-07T09:44:57.455Z,1.00
2018-11-07T09:47:25.208Z,1.40
2018-11-07T09:49:52.677Z,0.60
2018-11-07T09:52:22.026Z,1.00
2018-11-07T09:54:49.830Z,1.00
2018-11-07T09:57:19.415Z,1.40
2018-11-07T09:59:48.595Z,0.80
2018-11-07T10:02:16.497Z,0.00
2018-11-07T10:04:44.764Z,2.60
2018-11-07T10:07:13.208Z,1.00
2018-11-07T10:09:41.541Z,0.20
2018-11-07T10:12:08.988Z,1.00
2018-11-07T10:14:37.057Z,0.00
2018-11-07T10:17:05.505Z,1.00
2018-11-07T10:19:32.947Z,0.40
2018-11-07T10:22:00.392Z,1.00
2018-11-07T10:24:28.835Z,1.00
2018-11-07T10:26:56.347Z,2.20
2018-11-07T10:29:24.127Z,1.00
2018-11-07T10:31:51.817Z,0.80
2018-11-07T10:34:21.904Z,1.00
2018-11-07T10:36:49.351Z,0.80
2018-11-07T10:39:17.257Z,1.00
2018-11-07T10:41:44.704Z,0.60
2018-11-07T10:44:12.538Z,1.00
2018-11-07T10:46:42.668Z,0.80
2018-11-07T10:49:10.175Z,1.00
2018-11-07T10:51:38.998Z,2.20
2018-11-07T10:54:06.440Z,1.00
2018-11-07T10:56:33.869Z,2.20
2018-11-07T10:59:01.709Z,1.00
2018-11-07T11:01:34.264Z,1.40
2018-11-07T11:04:02.318Z,1.00
2018-11-07T11:06:30.159Z,1.00
2018-11-07T11:08:57.603Z,1.00
2018-11-07T11:11:25.124Z,1.00
2018-11-07T11:13:53.651Z,0.00
2018-11-07T11:16:21.129Z,1.00
2018-11-07T11:18:48.542Z,1.00
2018-11-07T11:21:16.373Z,1.80
2018-11-07T11:26:18.237Z,1.60
2018-11-07T11:28:48.301Z,1.00
2018-11-07T11:31:16.348Z,1.00
2018-11-07T11:33:44.519Z,1.00
2018-11-07T11:36:12.328Z,1.00
2018-11-07T11:38:39.789Z,0.60
2018-11-07T11:41:18.538Z,0.00
2018-11-07T11:43:46.401Z,1.00
2018-11-07T11:46:14.712Z,1.00
2018-11-07T11:48:42.165Z,1.40
2018-11-07T11:51:13.348Z,1.80
2018-11-07T11:53:41.016Z,1.00
2018-11-07T11:56:08.501Z,1.40
2018-11-07T11:58:36.352Z,1.00
2018-11-07T12:01:04.705Z,1.40
2018-11-07T12:03:33.804Z,0.00
2018-11-07T12:06:01.689Z,1.00
2018-11-07T12:08:29.921Z,0.00
2018-11-07T12:10:58.448Z,0.40
2018-11-07T12:13:26.320Z,0.00
2018-11-07T12:15:54.017Z,0.00
2018-11-07T12:18:22.437Z,0.00
2018-11-07T12:20:56.632Z,1.00
2018-11-07T12:23:24.052Z,0.00
2018-11-07T12:25:51.489Z,1.00
2018-11-07T12:28:19.224Z,0.00
2018-11-07T12:30:46.661Z,1.00
2018-11-07T12:33:14.092Z,2.20
2018-11-07T12:35:41.812Z,1.00
2018-11-07T12:38:10.245Z,0.00
2018-11-07T12:40:38.358Z,2.60
2018-11-07T12:43:06.246Z,1.00
2018-11-07T12:45:34.289Z,2.60
2018-11-07T12:48:01.827Z,0.00
2018-11-07T12:50:29.699Z,1.00
2018-11-07T12:52:59.834Z,0.00
2018-11-07T12:55:27.261Z,1.00
2018-11-07T12:57:56.010Z,1.40
2018-11-07T13:00:24.655Z,0.60
2018-11-07T13:02:53.178Z,0.80
2018-11-07T13:05:22.711Z,0.80
2018-11-07T13:07:50.738Z,1.00
2018-11-07T13:10:21.166Z,0.40
2018-11-07T13:12:49.532Z,0.20
2018-11-07T13:15:17.421Z,1.00
2018-11-07T13:17:45.256Z,0.00
2018-11-07T13:20:14.234Z,0.00
2018-11-07T13:22:43.285Z,1.00
2018-11-07T13:25:12.394Z,0.00
2018-11-07T13:27:42.152Z,0.60
2018-11-07T13:30:10.131Z,0.00
2018-11-07T13:32:38.408Z,1.00
2018-11-07T13:35:10.065Z,0.40
2018-11-07T13:37:38.156Z,0.00
2018-11-07T13:40:05.342Z,0.00
2018-11-07T13:42:33.369Z,1.00
2018-11-07T13:45:01.892Z,0.00
2018-11-07T13:47:29.340Z,0.00
2018-11-07T13:49:57.168Z,0.40
2018-11-07T13:52:25.613Z,0.00
2018-11-07T13:54:54.804Z,1.00
2018-11-07T13:57:23.561Z,1.00
2018-11-07T13:59:51.837Z,0.00
2018-11-07T14:02:20.141Z,0.80
2018-11-07T14:04:48.602Z,0.20
2018-11-07T14:07:16.035Z,0.00
2018-11-07T14:09:43.481Z,0.80
2018-11-07T14:12:11.288Z,1.00
2018-11-07T14:14:38.720Z,0.80
2018-11-07T14:17:06.144Z,0.60
2018-11-07T14:19:34.028Z,0.60
2018-11-07T14:22:01.497Z,1.20
2018-11-07T14:24:31.780Z,0.00
2018-11-07T14:26:59.691Z,0.40
2018-11-07T14:29:27.520Z,1.00
2018-11-07T14:31:54.957Z,2.20
2018-11-07T14:34:24.011Z,1.00
2018-11-07T14:36:51.470Z,1.00
2018-11-07T14:39:19.878Z,1.00
2018-11-07T14:41:47.701Z,1.00
2018-11-07T14:44:15.136Z,0.00
2018-11-07T14:46:42.626Z,0.00
2018-11-07T14:49:10.468Z,1.00
2018-11-07T14:51:39.229Z,0.80
2018-11-07T14:54:07.302Z,0.20
2018-11-07T14:56:36.220Z,0.60
2018-11-07T14:59:03.695Z,0.00
2018-11-07T15:01:31.403Z,1.00
2018-11-07T15:03:59.951Z,1.00
2018-11-07T15:06:27.374Z,0.20
2018-11-07T15:08:54.959Z,0.20
2018-11-07T15:11:24.921Z,1.00
2018-11-07T15:13:52.396Z,1.00
2018-11-07T15:16:19.849Z,0.40
2018-11-07T15:18:48.304Z,0.00
2018-11-07T15:21:15.807Z,0.00
2018-11-07T15:23:43.456Z,1.00
2018-11-07T15:26:11.333Z,1.00
2018-11-07T15:28:40.022Z,1.00
2018-11-07T15:31:07.572Z,0.20
2018-11-07T15:33:35.373Z,0.20
2018-11-07T15:36:03.986Z,1.00
2018-11-07T15:38:31.677Z,0.60
2018-11-07T15:41:02.376Z,0.80
2018-11-07T15:43:33.556Z,0.00
2018-11-07T15:46:01.180Z,1.00
2018-11-07T15:48:30.003Z,0.00
2018-11-07T15:51:02.489Z,0.00
2018-11-07T15:53:29.961Z,1.00
2018-11-07T15:55:57.801Z,0.00
2018-11-07T15:58:27.585Z,0.00
2018-11-07T16:00:55.820Z,0.80
2018-11-07T16:03:28.697Z,1.00
2018-11-07T16:05:58.580Z,0.00
2018-11-07T16:08:26.010Z,0.60
2018-11-07T16:10:53.810Z,0.60
2018-11-07T16:13:22.936Z,1.00
2018-11-07T16:15:50.429Z,0.20
2018-11-07T16:18:18.234Z,0.00
2018-11-07T16:20:45.743Z,0.00
2018-11-07T16:23:13.283Z,0.80
2018-11-07T16:25:41.205Z,2.60
2018-11-07T16:28:08.673Z,0.60
2018-11-07T16:30:37.839Z,1.00
2018-11-07T16:33:05.711Z,1.00
2018-11-07T16:35:33.197Z,1.00
2018-11-07T16:38:00.723Z,1.00
2018-11-07T16:40:28.443Z,1.00
2018-11-07T16:42:56.506Z,0.80
2018-11-07T16:45:23.948Z,0.60
2018-11-07T16:47:51.421Z,1.00
2018-11-07T16:50:19.282Z,1.00
2018-11-07T16:52:48.277Z,1.00
2018-11-07T16:55:16.651Z,1.00
2018-11-07T16:57:44.958Z,1.00
2018-11-07T17:00:16.221Z,1.00
2018-11-07T17:02:47.541Z,1.00
2018-11-07T17:05:15.363Z,0.80
2018-11-07T17:07:46.562Z,1.00
2018-11-07T17:10:14.410Z,0.40
2018-11-07T17:12:41.839Z,2.20
2018-11-07T17:15:10.849Z,1.80
2018-11-07T17:17:38.460Z,1.00
2018-11-07T17:20:05.972Z,1.00
2018-11-07T17:22:33.865Z,0.00
2018-11-07T17:25:03.109Z,1.00
2018-11-07T17:27:30.583Z,1.00
2018-11-07T17:29:58.449Z,1.00
2018-11-07T17:32:25.974Z,3.00
2018-11-07T17:34:53.481Z,1.80
2018-11-07T17:37:21.229Z,0.00
2018-11-07T17:39:48.685Z,1.00
2018-11-07T17:42:17.184Z,3.00
2018-11-07T17:44:46.665Z,3.00
2018-11-07T17:47:14.404Z,1.00
2018-11-07T17:49:41.855Z,3.00
2018-11-07T17:52:27.085Z,1.40
2018-11-07T17:54:54.757Z,1.00
2018-11-07T17:57:23.638Z,1.00
2018-11-07T17:59:51.077Z,4.00
2018-11-07T18:02:21.193Z,1.00
2018-11-07T18:04:49.052Z,3.00
2018-11-07T18:07:18.692Z,2.20
2018-11-07T18:09:47.252Z,1.40
2018-11-07T18:12:20.444Z,3.00
2018-11-07T18:14:49.191Z,3.00
2018-11-07T18:17:17.574Z,4.40
2018-11-07T18:19:45.552Z,2.80
2018-11-07T18:22:13.289Z,1.40
2018-11-07T18:24:41.357Z,1.00
2018-11-07T18:27:09.263Z,1.40
2018-11-07T18:29:38.378Z,2.60
2018-11-07T18:32:05.842Z,0.80
2018-11-07T18:34:36.996Z,1.00
2018-11-07T18:37:06.752Z,1.40
2018-11-07T18:39:34.421Z,2.60
2018-11-07T18:42:03.262Z,1.00
2018-11-07T18:44:30.756Z,3.00
2018-11-07T18:46:58.436Z,1.40
2018-11-07T18:49:26.244Z,3.60
2018-11-07T18:51:53.675Z,3.60
2018-11-07T18:54:21.120Z,1.80
2018-11-07T18:56:49.030Z,3.00
2018-11-07T18:59:16.461Z,3.00
2018-11-07T19:01:43.857Z,1.00
2018-11-07T19:04:12.569Z,1.40
2018-11-07T19:06:40.918Z,5.60
2018-11-07T19:09:08.607Z,2.20
2018-11-07T19:11:36.415Z,1.00
2018-11-07T19:14:05.131Z,6.00
2018-11-07T19:16:32.584Z,3.00
2018-11-07T19:19:00.403Z,3.00
2018-11-07T19:21:29.263Z,4.00
2018-11-07T19:23:57.452Z,3.60
2018-11-07T19:26:27.368Z,0.40
2018-11-07T19:28:57.762Z,1.40
2018-11-07T19:31:25.398Z,3.60
2018-11-07T19:33:59.309Z,3.20
2018-11-07T19:36:27.424Z,1.00
2018-11-07T19:38:54.865Z,3.00
2018-11-07T19:41:24.537Z,2.20
2018-11-07T19:43:51.984Z,0.20
2018-11-07T19:46:20.219Z,3.40
2018-11-07T19:48:51.763Z,9.20
2018-11-07T19:51:20.146Z,2.20
2018-11-07T19:53:47.651Z,1.40
2018-11-07T19:56:16.048Z,2.60
2018-11-07T19:58:43.452Z,5.60
2018-11-07T20:01:12.061Z,3.00
2018-11-07T20:03:40.640Z,1.40
2018-11-07T20:06:08.220Z,2.20
2018-11-07T20:08:35.663Z,2.80
2018-11-07T20:11:04.257Z,3.00
2018-11-07T20:13:31.732Z,1.80
2018-11-07T20:15:59.425Z,2.20
2018-11-07T20:18:28.473Z,1.40
2018-11-07T20:20:57.089Z,1.80
2018-11-07T20:23:26.360Z,2.20
2018-11-07T20:25:56.934Z,3.00
2018-11-07T20:28:24.617Z,0.00
2018-11-07T20:30:52.396Z,3.00
2018-11-07T20:33:19.856Z,1.00
2018-11-07T20:35:47.492Z,3.00
2018-11-07T20:38:15.179Z,3.00
2018-11-07T20:40:42.632Z,1.80
2018-11-07T20:43:15.990Z,3.80
2018-11-07T20:48:10.441Z,4.60
2018-11-07T20:50:38.553Z,1.00
2018-11-07T20:53:06.517Z,3.40
2018-11-07T20:55:33.957Z,4.00
2018-11-07T20:58:01.483Z,3.00
2018-11-07T21:00:29.256Z,3.80
2018-11-07T21:02:56.692Z,0.20
2018-11-07T21:05:25.620Z,2.20
2018-11-07T21:07:53.483Z,2.20
2018-11-07T21:10:22.255Z,3.00
2018-11-07T21:12:50.090Z,2.20
2018-11-07T21:15:18.784Z,1.00
2018-11-07T21:17:46.388Z,3.00
2018-11-07T21:20:14.397Z,3.00
2018-11-07T21:22:43.439Z,1.00
2018-11-07T21:25:11.088Z,3.00
2018-11-07T21:27:38.853Z,3.60
2018-11-07T21:30:08.364Z,4.80
2018-11-07T21:32:36.408Z,2.60
2018-11-07T21:35:03.907Z,4.00
2018-11-07T21:37:31.788Z,1.00
2018-11-07T21:39:59.448Z,3.00
2018-11-07T21:42:26.904Z,3.80
2018-11-07T21:44:54.762Z,3.40
2018-11-07T21:47:23.193Z,3.00
2018-11-07T21:49:51.446Z,5.60
2018-11-07T21:52:19.416Z,1.40
2018-11-07T21:54:47.595Z,3.00
2018-11-07T21:57:15.036Z,4.80
2018-11-07T21:59:43.444Z,5.20
2018-11-07T22:02:11.588Z,5.60
2018-11-07T22:04:39.815Z,3.00
2018-11-07T22:07:08.218Z,1.80
2018-11-07T22:09:37.978Z,4.00
2018-11-07T22:12:05.400Z,2.20
2018-11-07T22:14:34.196Z,3.20
2018-11-07T22:19:36.351Z,5.80
2018-11-07T22:22:05.142Z,3.80
2018-11-07T22:24:33.212Z,0.00
2018-11-07T22:27:01.295Z,3.00
2018-11-07T22:29:29.309Z,3.40
2018-11-07T22:31:57.434Z,2.20
2018-11-07T22:34:24.873Z,3.00
2018-11-07T22:36:53.444Z,2.60
2018-11-07T22:39:20.893Z,3.00
2018-11-07T22:41:49.166Z,3.00
2018-11-07T22:44:17.428Z,3.00
2018-11-07T22:46:44.872Z,3.00
2018-11-07T22:49:13.528Z,3.20
2018-11-07T22:51:42.469Z,3.60
2018-11-07T22:54:10.365Z,3.00
2018-11-07T22:56:37.821Z,3.00
2018-11-07T22:59:06.379Z,3.00
2018-11-07T23:01:39.987Z,4.80
2018-11-07T23:04:08.121Z,1.00
2018-11-07T23:06:37.079Z,3.00
2018-11-07T23:09:06.383Z,1.00
2018-11-07T23:11:39.204Z,3.00
2018-11-07T23:14:08.117Z,3.00
2018-11-07T23:16:36.477Z,2.60
2018-11-07T23:19:05.104Z,3.00
2018-11-07T23:21:32.869Z,3.20
2018-11-07T23:24:00.308Z,3.80
2018-11-07T23:26:27.778Z,3.00
2018-11-07T23:28:55.209Z,3.00
2018-11-07T23:31:22.911Z,3.20
2018-11-07T23:33:50.392Z,3.00
2018-11-07T23:36:17.815Z,1.40
2018-11-07T23:38:45.522Z,3.00
2018-11-07T23:41:13.391Z,2.20
2018-11-07T23:43:40.820Z,2.60
2018-11-07T23:46:08.240Z,3.60
2018-11-07T23:48:35.649Z,1.00
2018-11-07T23:51:03.380Z,3.20
2018-11-07T23:53:32.235Z,2.60
2018-11-07T23:55:59.657Z,0.00
2018-11-07T23:58:27.058Z,2.00
